createdAt,value
2022-09-14T00:02:11.163Z,30.45
2022-09-14T00:07:12.823Z,24.02
2022-09-14T00:12:14.559Z,24.65
2022-09-14T00:17:16.239Z,23.80
2022-09-14T00:22:17.957Z,26.40
2022-09-14T00:27:19.644Z,26.55
2022-09-14T00:32:21.248Z,31.38
2022-09-14T00:37:22.889Z,31.92
2022-09-14T00:42:24.502Z,29.45
2022-09-14T00:47:28.421Z,29.30
2022-09-14T00:52:32.833Z,31.40
2022-09-14T00:57:50.816Z,27.60
2022-09-14T01:02:52.851Z,24.15
2022-09-14T01:08:18.884Z,32.72
2022-09-14T01:13:29.586Z,25.73
2022-09-14T01:18:44.344Z,24.92
2022-09-14T01:24:16.320Z,32.70
2022-09-14T01:29:36.104Z,34.10
2022-09-14T01:34:45.067Z,36.47
2022-09-14T01:39:53.889Z,29.10
2022-09-14T01:45:02.181Z,26.85
2022-09-14T01:50:50.183Z,27.08
2022-09-14T01:55:59.873Z,29.45
2022-09-14T02:01:03.735Z,30.45
2022-09-14T02:06:13.149Z,28.58
2022-09-14T02:11:14.844Z,27.02
2022-09-14T02:16:16.568Z,25.25
2022-09-14T02:21:23.037Z,30.75
2022-09-14T02:26:25.130Z,24.38
2022-09-14T02:31:46.472Z,21.25
2022-09-14T02:37:02.254Z,27.20
2022-09-14T02:42:34.105Z,29.17
2022-09-14T02:48:04.535Z,26.00
2022-09-14T02:53:28.371Z,24.95
2022-09-14T02:58:42.190Z,28.90
2022-09-14T03:03:43.830Z,27.75
2022-09-14T03:08:45.630Z,23.00
2022-09-14T03:13:47.364Z,21.83
2022-09-14T03:18:49.075Z,22.35
2022-09-14T03:23:52.562Z,19.20
2022-09-14T03:28:56.577Z,11.95
2022-09-14T03:34:00.278Z,14.20
2022-09-14T03:39:02.026Z,23.27
2022-09-14T03:44:03.627Z,19.55
2022-09-14T03:49:05.925Z,32.75
2022-09-14T03:54:07.577Z,19.30
2022-09-14T03:59:10.014Z,17.13
2022-09-14T04:04:11.771Z,18.33
2022-09-14T04:09:13.394Z,16.15
2022-09-14T04:14:15.551Z,21.20
2022-09-14T04:19:17.275Z,12.23
2022-09-14T04:24:19.208Z,16.40
2022-09-14T04:29:21.094Z,16.48
2022-09-14T04:34:22.708Z,19.13
2022-09-14T04:39:25.479Z,18.52
2022-09-14T04:44:27.366Z,14.98
2022-09-14T04:49:29.070Z,20.40
2022-09-14T04:54:30.738Z,13.40
2022-09-14T04:59:32.445Z,19.80
2022-09-14T05:04:34.036Z,18.40
2022-09-14T05:09:35.621Z,20.35
2022-09-14T05:14:37.193Z,19.17
2022-09-14T05:19:38.865Z,19.02
2022-09-14T05:24:40.446Z,17.13
2022-09-14T05:29:42.059Z,14.13
2022-09-14T05:34:43.697Z,18.45
2022-09-14T05:39:45.358Z,10.55
2022-09-14T05:44:47.439Z,12.35
2022-09-14T05:49:49.040Z,9.60
2022-09-14T05:54:50.911Z,10.98
2022-09-14T05:59:52.478Z,7.70
2022-09-14T06:04:54.133Z,9.05
2022-09-14T06:09:55.806Z,11.07
2022-09-14T06:14:57.396Z,10.57
2022-09-14T06:20:03.535Z,10.07
2022-09-14T06:25:06.713Z,11.07
2022-09-14T06:30:09.042Z,11.93
2022-09-14T06:35:12.498Z,8.25
2022-09-14T06:40:14.400Z,7.80
2022-09-14T06:45:16.136Z,10.52
2022-09-14T06:50:17.849Z,14.95
2022-09-14T06:55:19.465Z,20.90
2022-09-14T07:00:21.540Z,7.30
2022-09-14T07:05:23.222Z,6.82
2022-09-14T07:10:28.033Z,7.75
2022-09-14T07:15:29.692Z,6.85
2022-09-14T07:20:31.335Z,7.70
2022-09-14T07:25:32.930Z,7.30
2022-09-14T07:30:38.926Z,8.93
2022-09-14T07:35:40.537Z,7.53
2022-09-14T07:40:42.276Z,8.32
2022-09-14T07:45:43.930Z,6.25
2022-09-14T07:50:45.609Z,10.00
2022-09-14T07:55:47.227Z,9.07
2022-09-14T08:00:48.819Z,5.03
2022-09-14T08:05:57.079Z,3.40
2022-09-14T08:11:07.709Z,4.38
2022-09-14T08:16:09.867Z,6.65
2022-09-14T08:21:16.988Z,9.10
2022-09-14T08:26:23.646Z,7.20
2022-09-14T08:31:27.014Z,10.15
2022-09-14T08:36:31.559Z,8.55
2022-09-14T08:41:48.683Z,7.18
2022-09-14T08:46:55.761Z,8.88
2022-09-14T08:51:57.516Z,8.82
2022-09-14T08:57:24.934Z,7.32
2022-09-14T09:02:26.650Z,3.17
2022-09-14T09:07:43.595Z,5.50
2022-09-14T09:12:53.690Z,5.25
2022-09-14T09:18:22.238Z,5.25
2022-09-14T09:23:28.150Z,6.38
2022-09-14T09:28:30.597Z,2.93
2022-09-14T09:33:33.026Z,2.95
2022-09-14T09:38:34.952Z,4.10
2022-09-14T09:43:56.407Z,4.90
2022-09-14T09:48:59.581Z,5.53
2022-09-14T09:54:13.302Z,7.90
2022-09-14T09:59:28.934Z,6.43
2022-09-14T10:04:30.737Z,4.45
2022-09-14T10:09:32.377Z,6.65
2022-09-14T10:14:35.999Z,7.38
2022-09-14T10:19:38.011Z,3.33
2022-09-14T10:24:39.738Z,4.75
2022-09-14T10:29:46.339Z,5.10
2022-09-14T10:40:07.394Z,2.95
2022-09-14T10:45:21.041Z,4.35
2022-09-14T10:50:41.158Z,5.53
2022-09-14T10:56:07.280Z,6.95
2022-09-14T11:01:11.967Z,2.75
2022-09-14T11:06:44.708Z,5.32
2022-09-14T11:11:59.965Z,3.47
2022-09-14T11:17:07.538Z,2.55
2022-09-14T11:22:15.177Z,5.38
2022-09-14T11:27:25.699Z,3.50
2022-09-14T11:32:34.360Z,4.40
2022-09-14T11:37:42.571Z,4.63
2022-09-14T11:43:00.928Z,2.70
2022-09-14T11:48:40.810Z,5.45
2022-09-14T11:53:34.010Z,4.47
2022-09-14T11:58:36.157Z,4.30
2022-09-14T12:03:52.403Z,3.90
2022-09-14T12:08:54.163Z,7.47
2022-09-14T12:14:26.836Z,6.63
2022-09-14T12:19:28.669Z,9.93
2022-09-14T12:24:30.858Z,10.63
2022-09-14T12:29:34.005Z,5.43
2022-09-14T12:34:35.707Z,6.63
2022-09-14T12:39:37.883Z,5.35
2022-09-14T12:44:41.763Z,10.07
2022-09-14T12:49:43.419Z,4.82
2022-09-14T12:54:58.922Z,6.95
2022-09-14T13:00:14.535Z,7.60
2022-09-14T13:05:20.010Z,4.90
2022-09-14T13:10:31.876Z,7.32
2022-09-14T13:15:37.193Z,9.35
2022-09-14T13:20:40.303Z,9.70
2022-09-14T13:25:41.962Z,5.68
2022-09-14T13:30:54.136Z,10.98
2022-09-14T13:36:02.088Z,8.52
2022-09-14T13:41:08.001Z,7.53
2022-09-14T13:46:11.570Z,9.10
2022-09-14T13:51:14.660Z,9.70
2022-09-14T13:56:20.876Z,9.82
2022-09-14T14:01:25.636Z,10.77
2022-09-14T14:06:28.738Z,10.40
2022-09-14T14:11:43.631Z,10.05
2022-09-14T14:17:21.158Z,14.73
2022-09-14T14:22:27.622Z,15.98
2022-09-14T14:27:34.734Z,11.43
2022-09-14T14:32:36.729Z,12.30
2022-09-14T14:37:38.344Z,14.02
2022-09-14T14:42:41.075Z,17.75
2022-09-14T14:47:42.770Z,13.68
2022-09-14T14:52:44.513Z,10.65
2022-09-14T14:57:46.886Z,7.53
2022-09-14T15:02:49.087Z,9.13
2022-09-14T15:07:52.523Z,7.97
2022-09-14T15:12:54.728Z,12.20
2022-09-14T15:17:56.515Z,15.80
2022-09-14T15:22:58.179Z,12.90
2022-09-14T15:28:00.252Z,13.88
2022-09-14T15:33:01.855Z,16.15
2022-09-14T15:38:03.785Z,22.25
2022-09-14T15:43:05.682Z,11.15
2022-09-14T15:48:07.342Z,14.00
2022-09-14T15:53:09.881Z,10.93
2022-09-14T15:58:11.993Z,15.23
2022-09-14T16:03:13.720Z,12.82
2022-09-14T16:08:15.309Z,12.68
2022-09-14T16:13:16.938Z,10.43
2022-09-14T16:18:18.737Z,5.43
2022-09-14T16:23:20.363Z,8.57
2022-09-14T16:28:21.988Z,5.03
2022-09-14T16:33:23.608Z,8.77
2022-09-14T16:38:25.209Z,5.65
2022-09-14T16:43:27.743Z,3.55
2022-09-14T16:48:31.220Z,6.85
2022-09-14T16:53:35.319Z,5.18
2022-09-14T16:58:38.784Z,4.50
2022-09-14T17:03:41.666Z,5.88
2022-09-14T17:08:44.721Z,8.18
2022-09-14T17:13:47.024Z,10.07
2022-09-14T17:18:51.352Z,10.80
2022-09-14T17:23:53.867Z,8.75
2022-09-14T17:28:57.658Z,18.73
2022-09-14T17:34:01.446Z,4.13
2022-09-14T17:39:09.170Z,4.20
2022-09-14T17:44:14.398Z,1.75
2022-09-14T17:49:16.177Z,0.95
2022-09-14T17:54:19.059Z,5.97
2022-09-14T17:59:21.001Z,1.23
2022-09-14T18:04:22.829Z,5.22
2022-09-14T18:09:24.777Z,3.63
2022-09-14T18:14:26.690Z,1.77
2022-09-14T18:19:28.369Z,4.55
2022-09-14T18:24:30.090Z,7.45
2022-09-14T18:29:33.607Z,2.85
2022-09-14T18:34:35.279Z,2.05
2022-09-14T18:39:36.866Z,5.03
2022-09-14T18:44:38.483Z,5.45
2022-09-14T18:49:40.094Z,3.75
2022-09-14T18:54:42.650Z,5.90
2022-09-14T18:59:44.300Z,2.28
2022-09-14T19:04:45.956Z,2.15
2022-09-14T19:09:48.953Z,5.25
2022-09-14T19:14:51.031Z,3.67
2022-09-14T19:19:53.273Z,3.30
2022-09-14T19:24:54.895Z,2.90
2022-09-14T19:29:56.489Z,1.48
2022-09-14T19:34:58.131Z,4.07
2022-09-14T19:39:59.930Z,3.42
2022-09-14T19:45:01.834Z,5.75
2022-09-14T19:50:04.190Z,5.95
2022-09-14T19:55:06.268Z,2.67
2022-09-14T20:00:13.211Z,3.92
2022-09-14T20:05:16.934Z,4.90
2022-09-14T20:10:18.871Z,0.75
2022-09-14T20:15:20.513Z,3.78
2022-09-14T20:20:23.440Z,3.92
2022-09-14T20:25:26.138Z,1.38
2022-09-14T20:30:27.806Z,6.18
2022-09-14T20:35:30.046Z,3.03
2022-09-14T20:40:32.063Z,2.95
2022-09-14T20:45:34.059Z,6.85
2022-09-14T20:50:35.653Z,5.70
2022-09-14T20:55:37.316Z,3.92
2022-09-14T21:00:39.024Z,1.80
2022-09-14T21:05:40.668Z,2.58
2022-09-14T21:10:42.275Z,0.65
2022-09-14T21:15:43.996Z,0.20
2022-09-14T21:20:46.080Z,0.28
2022-09-14T21:25:54.907Z,0.57
2022-09-14T21:31:09.492Z,0.47
2022-09-14T21:36:16.925Z,0.60
2022-09-14T21:41:19.508Z,0.75
2022-09-14T21:46:21.903Z,0.40
2022-09-14T21:51:26.663Z,1.05
2022-09-14T21:56:30.655Z,0.40
2022-09-14T22:01:32.560Z,0.93
2022-09-14T22:06:34.730Z,2.05
2022-09-14T22:11:38.669Z,0.40
2022-09-14T22:16:41.344Z,0.25
2022-09-14T22:21:43.438Z,0.30
2022-09-14T22:26:46.399Z,2.60
2022-09-14T22:31:48.027Z,2.58
2022-09-14T22:36:49.628Z,0.95
2022-09-14T22:41:51.275Z,1.85
2022-09-14T22:46:53.407Z,2.67
2022-09-14T22:51:55.053Z,1.45
2022-09-14T22:56:56.669Z,5.18
2022-09-14T23:01:58.487Z,1.90
2022-09-14T23:07:00.365Z,1.25
2022-09-14T23:12:02.149Z,4.90
2022-09-14T23:17:04.018Z,3.30
2022-09-14T23:22:05.856Z,12.20
2022-09-14T23:27:07.477Z,1.27
2022-09-14T23:32:09.183Z,3.35
2022-09-14T23:37:10.918Z,2.03
2022-09-14T23:42:12.598Z,3.85
2022-09-14T23:47:14.242Z,5.20
2022-09-14T23:52:15.849Z,4.32
2022-09-14T23:57:17.559Z,4.28
